sensor_id;sensor_type;location;lat;lon;timestamp;P1;durP1;ratioP1;P2;durP2;ratioP2
71196;SDS011;58918;51.652;4.864;2022-11-20T00:00:21;6.70;;;2.60;;
71196;SDS011;58918;51.652;4.864;2022-11-20T00:02:48;12.20;;;2.17;;
71196;SDS011;58918;51.652;4.864;2022-11-20T00:05:15;4.95;;;2.15;;
71196;SDS011;58918;51.652;4.864;2022-11-20T00:10:11;8.88;;;2.05;;
71196;SDS011;58918;51.652;4.864;2022-11-20T00:12:38;4.75;;;2.20;;
71196;SDS011;58918;51.652;4.864;2022-11-20T00:15:05;4.68;;;2.10;;
71196;SDS011;58918;51.652;4.864;2022-11-20T00:17:33;6.03;;;1.98;;
71196;SDS011;58918;51.652;4.864;2022-11-20T00:20:00;5.20;;;2.15;;
71196;SDS011;58918;51.652;4.864;2022-11-20T00:22:27;8.15;;;2.40;;
71196;SDS011;58918;51.652;4.864;2022-11-20T00:24:54;5.60;;;2.10;;
71196;SDS011;58918;51.652;4.864;2022-11-20T00:27:23;6.72;;;2.60;;
71196;SDS011;58918;51.652;4.864;2022-11-20T00:29:50;4.95;;;2.05;;
71196;SDS011;58918;51.652;4.864;2022-11-20T00:32:17;4.53;;;2.20;;
71196;SDS011;58918;51.652;4.864;2022-11-20T00:34:45;5.80;;;2.20;;
71196;SDS011;58918;51.652;4.864;2022-11-20T00:37:12;5.82;;;2.47;;
71196;SDS011;58918;51.652;4.864;2022-11-20T00:39:39;5.22;;;2.00;;
71196;SDS011;58918;51.652;4.864;2022-11-20T00:42:06;6.45;;;1.90;;
71196;SDS011;58918;51.652;4.864;2022-11-20T00:44:34;4.97;;;2.10;;
71196;SDS011;58918;51.652;4.864;2022-11-20T00:47:01;4.70;;;1.83;;
71196;SDS011;58918;51.652;4.864;2022-11-20T00:49:28;5.18;;;2.00;;
71196;SDS011;58918;51.652;4.864;2022-11-20T00:51:55;4.30;;;1.88;;
71196;SDS011;58918;51.652;4.864;2022-11-20T00:54:22;6.25;;;2.10;;
71196;SDS011;58918;51.652;4.864;2022-11-20T00:56:49;5.40;;;2.35;;
71196;SDS011;58918;51.652;4.864;2022-11-20T00:59:17;5.75;;;2.35;;
71196;SDS011;58918;51.652;4.864;2022-11-20T01:01:44;4.82;;;2.40;;
71196;SDS011;58918;51.652;4.864;2022-11-20T01:04:11;7.47;;;2.10;;
71196;SDS011;58918;51.652;4.864;2022-11-20T01:06:39;5.20;;;2.10;;
71196;SDS011;58918;51.652;4.864;2022-11-20T01:09:07;4.38;;;1.92;;
71196;SDS011;58918;51.652;4.864;2022-11-20T01:11:37;5.00;;;2.20;;
71196;SDS011;58918;51.652;4.864;2022-11-20T01:14:05;4.82;;;2.15;;
71196;SDS011;58918;51.652;4.864;2022-11-20T01:16:34;4.90;;;1.90;;
71196;SDS011;58918;51.652;4.864;2022-11-20T01:19:03;5.63;;;2.45;;
71196;SDS011;58918;51.652;4.864;2022-11-20T01:21:35;5.20;;;2.38;;
71196;SDS011;58918;51.652;4.864;2022-11-20T01:26:31;4.47;;;1.80;;
71196;SDS011;58918;51.652;4.864;2022-11-20T01:28:59;4.22;;;2.13;;
71196;SDS011;58918;51.652;4.864;2022-11-20T01:31:27;5.30;;;2.25;;
71196;SDS011;58918;51.652;4.864;2022-11-20T01:33:56;6.28;;;2.08;;
71196;SDS011;58918;51.652;4.864;2022-11-20T01:36:26;6.00;;;2.22;;
71196;SDS011;58918;51.652;4.864;2022-11-20T01:38:55;4.57;;;2.03;;
71196;SDS011;58918;51.652;4.864;2022-11-20T01:41:22;5.15;;;2.40;;
71196;SDS011;58918;51.652;4.864;2022-11-20T01:44:09;11.20;;;2.30;;
71196;SDS011;58918;51.652;4.864;2022-11-20T01:46:38;6.22;;;2.88;;
71196;SDS011;58918;51.652;4.864;2022-11-20T01:51:44;5.60;;;1.88;;
71196;SDS011;58918;51.652;4.864;2022-11-20T01:54:13;6.03;;;2.15;;
71196;SDS011;58918;51.652;4.864;2022-11-20T01:56:42;4.03;;;1.77;;
71196;SDS011;58918;51.652;4.864;2022-11-20T01:59:12;4.40;;;2.00;;
71196;SDS011;58918;51.652;4.864;2022-11-20T02:01:40;5.72;;;2.08;;
71196;SDS011;58918;51.652;4.864;2022-11-20T02:04:08;4.65;;;2.20;;
71196;SDS011;58918;51.652;4.864;2022-11-20T02:06:46;5.13;;;2.35;;
71196;SDS011;58918;51.652;4.864;2022-11-20T02:09:15;6.13;;;2.25;;
71196;SDS011;58918;51.652;4.864;2022-11-20T02:11:42;4.22;;;1.88;;
71196;SDS011;58918;51.652;4.864;2022-11-20T02:14:09;5.32;;;2.53;;
71196;SDS011;58918;51.652;4.864;2022-11-20T02:16:37;5.28;;;1.98;;
71196;SDS011;58918;51.652;4.864;2022-11-20T02:19:07;6.28;;;2.50;;
71196;SDS011;58918;51.652;4.864;2022-11-20T02:21:40;4.72;;;2.00;;
71196;SDS011;58918;51.652;4.864;2022-11-20T02:24:10;6.18;;;2.10;;
71196;SDS011;58918;51.652;4.864;2022-11-20T02:29:05;4.13;;;1.85;;
71196;SDS011;58918;51.652;4.864;2022-11-20T02:31:40;4.10;;;1.80;;
71196;SDS011;58918;51.652;4.864;2022-11-20T02:34:07;4.10;;;2.08;;
71196;SDS011;58918;51.652;4.864;2022-11-20T02:36:35;4.78;;;2.10;;
71196;SDS011;58918;51.652;4.864;2022-11-20T02:39:04;4.30;;;1.88;;
71196;SDS011;58918;51.652;4.864;2022-11-20T02:41:35;4.20;;;1.85;;
71196;SDS011;58918;51.652;4.864;2022-11-20T02:44:03;4.40;;;1.73;;
71196;SDS011;58918;51.652;4.864;2022-11-20T02:46:31;4.45;;;2.00;;
71196;SDS011;58918;51.652;4.864;2022-11-20T02:48:58;5.03;;;2.00;;
71196;SDS011;58918;51.652;4.864;2022-11-20T02:51:25;4.65;;;2.05;;
71196;SDS011;58918;51.652;4.864;2022-11-20T02:53:53;5.05;;;2.65;;
71196;SDS011;58918;51.652;4.864;2022-11-20T02:56:20;4.20;;;2.00;;
71196;SDS011;58918;51.652;4.864;2022-11-20T02:58:47;4.30;;;2.05;;
71196;SDS011;58918;51.652;4.864;2022-11-20T03:01:14;6.35;;;2.20;;
71196;SDS011;58918;51.652;4.864;2022-11-20T03:03:41;4.70;;;1.90;;
71196;SDS011;58918;51.652;4.864;2022-11-20T03:06:09;5.80;;;1.95;;
71196;SDS011;58918;51.652;4.864;2022-11-20T03:08:36;4.30;;;1.98;;
71196;SDS011;58918;51.652;4.864;2022-11-20T03:11:04;4.70;;;2.08;;
71196;SDS011;58918;51.652;4.864;2022-11-20T03:13:31;4.80;;;2.10;;
71196;SDS011;58918;51.652;4.864;2022-11-20T03:15:58;5.20;;;2.10;;
71196;SDS011;58918;51.652;4.864;2022-11-20T03:18:27;4.93;;;2.10;;
71196;SDS011;58918;51.652;4.864;2022-11-20T03:20:58;4.90;;;2.10;;
71196;SDS011;58918;51.652;4.864;2022-11-20T03:23:25;4.07;;;1.92;;
71196;SDS011;58918;51.652;4.864;2022-11-20T03:25:52;4.65;;;1.98;;
71196;SDS011;58918;51.652;4.864;2022-11-20T03:28:19;4.10;;;2.10;;
71196;SDS011;58918;51.652;4.864;2022-11-20T03:30:46;4.47;;;1.85;;
71196;SDS011;58918;51.652;4.864;2022-11-20T03:33:14;4.57;;;1.98;;
71196;SDS011;58918;51.652;4.864;2022-11-20T03:35:41;5.15;;;2.00;;
71196;SDS011;58918;51.652;4.864;2022-11-20T03:38:08;5.40;;;2.10;;
71196;SDS011;58918;51.652;4.864;2022-11-20T03:40:35;4.65;;;2.15;;
71196;SDS011;58918;51.652;4.864;2022-11-20T03:43:02;4.15;;;1.73;;
71196;SDS011;58918;51.652;4.864;2022-11-20T03:45:29;4.80;;;2.03;;
71196;SDS011;58918;51.652;4.864;2022-11-20T03:47:56;4.97;;;2.20;;
71196;SDS011;58918;51.652;4.864;2022-11-20T03:50:24;5.03;;;2.40;;
71196;SDS011;58918;51.652;4.864;2022-11-20T03:52:51;5.00;;;2.00;;
71196;SDS011;58918;51.652;4.864;2022-11-20T03:55:18;5.95;;;2.53;;
71196;SDS011;58918;51.652;4.864;2022-11-20T03:57:45;4.22;;;2.10;;
71196;SDS011;58918;51.652;4.864;2022-11-20T04:00:12;4.82;;;1.90;;
71196;SDS011;58918;51.652;4.864;2022-11-20T04:02:39;5.88;;;2.28;;
71196;SDS011;58918;51.652;4.864;2022-11-20T04:05:07;5.45;;;2.17;;
71196;SDS011;58918;51.652;4.864;2022-11-20T04:07:34;4.03;;;1.98;;
71196;SDS011;58918;51.652;4.864;2022-11-20T04:10:01;5.45;;;2.08;;
71196;SDS011;58918;51.652;4.864;2022-11-20T04:12:31;4.30;;;2.13;;
71196;SDS011;58918;51.652;4.864;2022-11-20T04:14:58;4.78;;;2.35;;
71196;SDS011;58918;51.652;4.864;2022-11-20T04:17:25;4.07;;;2.08;;
71196;SDS011;58918;51.652;4.864;2022-11-20T04:19:52;5.85;;;2.22;;
71196;SDS011;58918;51.652;4.864;2022-11-20T04:22:19;4.25;;;2.00;;
71196;SDS011;58918;51.652;4.864;2022-11-20T04:24:47;5.65;;;2.50;;
71196;SDS011;58918;51.652;4.864;2022-11-20T04:27:14;4.68;;;2.10;;
71196;SDS011;58918;51.652;4.864;2022-11-20T04:29:41;5.20;;;2.30;;
71196;SDS011;58918;51.652;4.864;2022-11-20T04:32:08;5.43;;;2.00;;
71196;SDS011;58918;51.652;4.864;2022-11-20T04:34:35;4.47;;;2.00;;
71196;SDS011;58918;51.652;4.864;2022-11-20T04:37:03;5.00;;;2.00;;
71196;SDS011;58918;51.652;4.864;2022-11-20T04:39:30;4.22;;;1.90;;
71196;SDS011;58918;51.652;4.864;2022-11-20T04:41:57;5.00;;;2.25;;
71196;SDS011;58918;51.652;4.864;2022-11-20T04:44:43;4.03;;;1.90;;
71196;SDS011;58918;51.652;4.864;2022-11-20T04:47:10;5.53;;;2.28;;
71196;SDS011;58918;51.652;4.864;2022-11-20T04:49:37;4.38;;;2.00;;
71196;SDS011;58918;51.652;4.864;2022-11-20T04:52:04;6.45;;;2.33;;
71196;SDS011;58918;51.652;4.864;2022-11-20T04:54:31;4.88;;;2.03;;
71196;SDS011;58918;51.652;4.864;2022-11-20T04:56:58;4.30;;;2.05;;
71196;SDS011;58918;51.652;4.864;2022-11-20T04:59:26;5.10;;;2.22;;
71196;SDS011;58918;51.652;4.864;2022-11-20T05:01:53;5.22;;;2.35;;
71196;SDS011;58918;51.652;4.864;2022-11-20T05:04:20;4.50;;;2.08;;
71196;SDS011;58918;51.652;4.864;2022-11-20T05:06:49;5.28;;;2.00;;
71196;SDS011;58918;51.652;4.864;2022-11-20T05:09:17;6.38;;;2.17;;
71196;SDS011;58918;51.652;4.864;2022-11-20T05:11:44;4.50;;;2.03;;
71196;SDS011;58918;51.652;4.864;2022-11-20T05:14:16;6.30;;;2.13;;
71196;SDS011;58918;51.652;4.864;2022-11-20T05:16:43;4.82;;;2.15;;
71196;SDS011;58918;51.652;4.864;2022-11-20T05:19:11;4.93;;;2.53;;
71196;SDS011;58918;51.652;4.864;2022-11-20T05:21:38;6.68;;;2.50;;
71196;SDS011;58918;51.652;4.864;2022-11-20T05:24:05;5.22;;;2.10;;
71196;SDS011;58918;51.652;4.864;2022-11-20T05:26:33;4.28;;;2.05;;
71196;SDS011;58918;51.652;4.864;2022-11-20T05:29:00;5.07;;;2.10;;
71196;SDS011;58918;51.652;4.864;2022-11-20T05:31:27;4.90;;;2.17;;
71196;SDS011;58918;51.652;4.864;2022-11-20T05:33:55;4.47;;;2.10;;
71196;SDS011;58918;51.652;4.864;2022-11-20T05:36:22;5.10;;;2.28;;
71196;SDS011;58918;51.652;4.864;2022-11-20T05:38:49;4.63;;;2.30;;
71196;SDS011;58918;51.652;4.864;2022-11-20T05:41:20;5.32;;;2.38;;
71196;SDS011;58918;51.652;4.864;2022-11-20T05:43:47;5.32;;;2.20;;
71196;SDS011;58918;51.652;4.864;2022-11-20T05:46:15;3.92;;;2.10;;
71196;SDS011;58918;51.652;4.864;2022-11-20T05:48:45;4.43;;;2.25;;
71196;SDS011;58918;51.652;4.864;2022-11-20T05:51:14;4.65;;;2.25;;
71196;SDS011;58918;51.652;4.864;2022-11-20T05:56:14;4.43;;;2.00;;
71196;SDS011;58918;51.652;4.864;2022-11-20T05:58:42;4.35;;;2.13;;
71196;SDS011;58918;51.652;4.864;2022-11-20T06:01:22;3.95;;;1.90;;
71196;SDS011;58918;51.652;4.864;2022-11-20T06:03:49;4.38;;;1.83;;
71196;SDS011;58918;51.652;4.864;2022-11-20T06:06:17;7.05;;;2.35;;
71196;SDS011;58918;51.652;4.864;2022-11-20T06:08:45;5.25;;;2.30;;
71196;SDS011;58918;51.652;4.864;2022-11-20T06:11:13;5.95;;;2.00;;
71196;SDS011;58918;51.652;4.864;2022-11-20T06:13:41;5.07;;;2.08;;
71196;SDS011;58918;51.652;4.864;2022-11-20T06:16:09;4.55;;;2.03;;
71196;SDS011;58918;51.652;4.864;2022-11-20T06:18:36;5.13;;;2.35;;
71196;SDS011;58918;51.652;4.864;2022-11-20T06:21:13;6.07;;;2.25;;
71196;SDS011;58918;51.652;4.864;2022-11-20T06:23:41;4.50;;;2.10;;
71196;SDS011;58918;51.652;4.864;2022-11-20T06:26:10;5.07;;;2.15;;
71196;SDS011;58918;51.652;4.864;2022-11-20T06:28:37;4.63;;;2.05;;
71196;SDS011;58918;51.652;4.864;2022-11-20T06:31:05;5.60;;;2.13;;
71196;SDS011;58918;51.652;4.864;2022-11-20T06:33:32;5.75;;;2.30;;
71196;SDS011;58918;51.652;4.864;2022-11-20T06:36:02;5.15;;;2.35;;
71196;SDS011;58918;51.652;4.864;2022-11-20T06:38:36;4.00;;;1.92;;
71196;SDS011;58918;51.652;4.864;2022-11-20T06:41:06;5.70;;;2.08;;
71196;SDS011;58918;51.652;4.864;2022-11-20T06:43:34;3.88;;;1.90;;
71196;SDS011;58918;51.652;4.864;2022-11-20T06:46:01;4.88;;;2.30;;
71196;SDS011;58918;51.652;4.864;2022-11-20T06:48:28;4.53;;;2.08;;
71196;SDS011;58918;51.652;4.864;2022-11-20T06:50:56;4.70;;;2.33;;
71196;SDS011;58918;51.652;4.864;2022-11-20T06:53:23;4.13;;;2.08;;
71196;SDS011;58918;51.652;4.864;2022-11-20T06:55:51;4.47;;;1.92;;
71196;SDS011;58918;51.652;4.864;2022-11-20T06:58:18;4.63;;;2.60;;
71196;SDS011;58918;51.652;4.864;2022-11-20T07:00:45;5.28;;;2.05;;
71196;SDS011;58918;51.652;4.864;2022-11-20T07:03:13;5.65;;;2.17;;
71196;SDS011;58918;51.652;4.864;2022-11-20T07:05:40;4.53;;;2.17;;
71196;SDS011;58918;51.652;4.864;2022-11-20T07:08:07;5.05;;;2.33;;
71196;SDS011;58918;51.652;4.864;2022-11-20T07:10:35;4.88;;;2.08;;
71196;SDS011;58918;51.652;4.864;2022-11-20T07:13:02;6.18;;;2.45;;
71196;SDS011;58918;51.652;4.864;2022-11-20T07:15:29;4.53;;;2.20;;
71196;SDS011;58918;51.652;4.864;2022-11-20T07:17:59;4.35;;;2.00;;
71196;SDS011;58918;51.652;4.864;2022-11-20T07:20:27;4.25;;;2.13;;
71196;SDS011;58918;51.652;4.864;2022-11-20T07:22:54;4.70;;;2.10;;
71196;SDS011;58918;51.652;4.864;2022-11-20T07:25:22;5.30;;;2.10;;
71196;SDS011;58918;51.652;4.864;2022-11-20T07:27:49;5.43;;;2.17;;
71196;SDS011;58918;51.652;4.864;2022-11-20T07:30:17;4.30;;;2.00;;
71196;SDS011;58918;51.652;4.864;2022-11-20T07:32:47;4.57;;;2.10;;
71196;SDS011;58918;51.652;4.864;2022-11-20T07:35:17;4.40;;;2.00;;
71196;SDS011;58918;51.652;4.864;2022-11-20T07:37:45;4.10;;;1.70;;
71196;SDS011;58918;51.652;4.864;2022-11-20T07:40:13;3.75;;;1.98;;
71196;SDS011;58918;51.652;4.864;2022-11-20T07:42:47;4.55;;;2.10;;
71196;SDS011;58918;51.652;4.864;2022-11-20T07:45:18;4.45;;;2.15;;
71196;SDS011;58918;51.652;4.864;2022-11-20T07:47:48;4.63;;;1.90;;
71196;SDS011;58918;51.652;4.864;2022-11-20T07:50:16;4.97;;;2.25;;
71196;SDS011;58918;51.652;4.864;2022-11-20T07:52:43;4.55;;;2.03;;
71196;SDS011;58918;51.652;4.864;2022-11-20T07:55:10;4.38;;;2.35;;
71196;SDS011;58918;51.652;4.864;2022-11-20T07:57:38;3.92;;;1.70;;
71196;SDS011;58918;51.652;4.864;2022-11-20T08:00:05;10.23;;;1.95;;
71196;SDS011;58918;51.652;4.864;2022-11-20T08:02:38;5.70;;;2.10;;
71196;SDS011;58918;51.652;4.864;2022-11-20T08:05:06;4.75;;;2.13;;
71196;SDS011;58918;51.652;4.864;2022-11-20T08:07:37;7.57;;;2.35;;
71196;SDS011;58918;51.652;4.864;2022-11-20T08:10:05;7.65;;;2.20;;
71196;SDS011;58918;51.652;4.864;2022-11-20T08:12:33;6.10;;;2.28;;
71196;SDS011;58918;51.652;4.864;2022-11-20T08:15:19;9.57;;;2.30;;
71196;SDS011;58918;51.652;4.864;2022-11-20T08:17:46;7.28;;;2.17;;
71196;SDS011;58918;51.652;4.864;2022-11-20T08:20:33;7.50;;;2.50;;
71196;SDS011;58918;51.652;4.864;2022-11-20T08:23:01;6.93;;;2.38;;
71196;SDS011;58918;51.652;4.864;2022-11-20T08:25:29;8.77;;;2.47;;
71196;SDS011;58918;51.652;4.864;2022-11-20T08:27:57;7.47;;;2.60;;
71196;SDS011;58918;51.652;4.864;2022-11-20T08:30:26;8.63;;;2.97;;
71196;SDS011;58918;51.652;4.864;2022-11-20T08:32:53;11.38;;;4.47;;
71196;SDS011;58918;51.652;4.864;2022-11-20T08:35:21;9.18;;;3.28;;
71196;SDS011;58918;51.652;4.864;2022-11-20T08:37:48;8.60;;;2.83;;
71196;SDS011;58918;51.652;4.864;2022-11-20T08:40:16;7.78;;;3.08;;
71196;SDS011;58918;51.652;4.864;2022-11-20T08:45:12;8.55;;;2.65;;
71196;SDS011;58918;51.652;4.864;2022-11-20T08:47:39;9.43;;;3.25;;
71196;SDS011;58918;51.652;4.864;2022-11-20T08:50:07;9.35;;;3.38;;
71196;SDS011;58918;51.652;4.864;2022-11-20T08:52:34;6.68;;;2.95;;
71196;SDS011;58918;51.652;4.864;2022-11-20T08:55:05;9.95;;;3.42;;
71196;SDS011;58918;51.652;4.864;2022-11-20T09:00:05;8.20;;;2.85;;
71196;SDS011;58918;51.652;4.864;2022-11-20T09:02:34;8.18;;;3.08;;
71196;SDS011;58918;51.652;4.864;2022-11-20T09:05:01;8.57;;;2.80;;
71196;SDS011;58918;51.652;4.864;2022-11-20T09:07:29;17.35;;;3.03;;
71196;SDS011;58918;51.652;4.864;2022-11-20T09:09:56;11.07;;;3.00;;
71196;SDS011;58918;51.652;4.864;2022-11-20T09:12:43;10.63;;;3.42;;
71196;SDS011;58918;51.652;4.864;2022-11-20T09:15:10;8.48;;;2.88;;
71196;SDS011;58918;51.652;4.864;2022-11-20T09:17:38;9.40;;;2.95;;
71196;SDS011;58918;51.652;4.864;2022-11-20T09:20:05;8.13;;;3.00;;
71196;SDS011;58918;51.652;4.864;2022-11-20T09:22:33;9.45;;;2.83;;
71196;SDS011;58918;51.652;4.864;2022-11-20T09:25:00;10.18;;;2.72;;
71196;SDS011;58918;51.652;4.864;2022-11-20T09:27:27;8.32;;;3.03;;
71196;SDS011;58918;51.652;4.864;2022-11-20T09:29:54;8.52;;;3.60;;
71196;SDS011;58918;51.652;4.864;2022-11-20T09:32:21;11.52;;;3.00;;
71196;SDS011;58918;51.652;4.864;2022-11-20T09:34:49;7.80;;;2.92;;
71196;SDS011;58918;51.652;4.864;2022-11-20T09:37:16;8.35;;;2.83;;
71196;SDS011;58918;51.652;4.864;2022-11-20T09:39:43;10.60;;;2.70;;
71196;SDS011;58918;51.652;4.864;2022-11-20T09:47:26;8.60;;;2.80;;
71196;SDS011;58918;51.652;4.864;2022-11-20T09:50:23;6.07;;;2.85;;
71196;SDS011;58918;51.652;4.864;2022-11-20T09:52:51;8.32;;;2.50;;
71196;SDS011;58918;51.652;4.864;2022-11-20T09:55:22;8.20;;;2.35;;
71196;SDS011;58918;51.652;4.864;2022-11-20T09:57:50;7.65;;;2.70;;
71196;SDS011;58918;51.652;4.864;2022-11-20T10:00:18;8.10;;;2.33;;
71196;SDS011;58918;51.652;4.864;2022-11-20T10:10:50;6.57;;;2.20;;
71196;SDS011;58918;51.652;4.864;2022-11-20T10:15:53;6.13;;;2.63;;
71196;SDS011;58918;51.652;4.864;2022-11-20T10:18:23;6.60;;;2.88;;
71196;SDS011;58918;51.652;4.864;2022-11-20T10:21:04;7.05;;;2.65;;
71196;SDS011;58918;51.652;4.864;2022-11-20T10:26:22;8.05;;;2.75;;
71196;SDS011;58918;51.652;4.864;2022-11-20T10:31:48;7.30;;;2.78;;
71196;SDS011;58918;51.652;4.864;2022-11-20T10:34:23;5.72;;;2.45;;
71196;SDS011;58918;51.652;4.864;2022-11-20T10:36:56;5.95;;;2.60;;
71196;SDS011;58918;51.652;4.864;2022-11-20T10:41:52;7.30;;;2.83;;
71196;SDS011;58918;51.652;4.864;2022-11-20T10:44:21;10.73;;;2.75;;
71196;SDS011;58918;51.652;4.864;2022-11-20T10:47:16;7.63;;;2.47;;
71196;SDS011;58918;51.652;4.864;2022-11-20T10:49:45;6.40;;;2.65;;
71196;SDS011;58918;51.652;4.864;2022-11-20T10:54:53;5.32;;;2.45;;
71196;SDS011;58918;51.652;4.864;2022-11-20T11:00:12;6.30;;;2.72;;
71196;SDS011;58918;51.652;4.864;2022-11-20T11:02:44;5.97;;;2.88;;
71196;SDS011;58918;51.652;4.864;2022-11-20T11:05:33;6.47;;;2.60;;
71196;SDS011;58918;51.652;4.864;2022-11-20T11:08:02;7.10;;;2.83;;
71196;SDS011;58918;51.652;4.864;2022-11-20T11:13:20;9.30;;;2.63;;
71196;SDS011;58918;51.652;4.864;2022-11-20T11:15:48;6.30;;;2.55;;
71196;SDS011;58918;51.652;4.864;2022-11-20T11:18:28;7.90;;;2.80;;
71196;SDS011;58918;51.652;4.864;2022-11-20T11:20:56;8.73;;;2.80;;
71196;SDS011;58918;51.652;4.864;2022-11-20T11:23:45;6.97;;;2.85;;
71196;SDS011;58918;51.652;4.864;2022-11-20T11:26:19;5.88;;;2.58;;
71196;SDS011;58918;51.652;4.864;2022-11-20T11:28:57;6.53;;;2.60;;
71196;SDS011;58918;51.652;4.864;2022-11-20T11:31:29;6.68;;;3.20;;
71196;SDS011;58918;51.652;4.864;2022-11-20T11:36:33;6.20;;;2.70;;
71196;SDS011;58918;51.652;4.864;2022-11-20T11:39:01;7.57;;;3.22;;
71196;SDS011;58918;51.652;4.864;2022-11-20T11:41:33;8.38;;;3.40;;
71196;SDS011;58918;51.652;4.864;2022-11-20T11:46:52;6.30;;;2.78;;
71196;SDS011;58918;51.652;4.864;2022-11-20T11:49:20;8.73;;;3.35;;
71196;SDS011;58918;51.652;4.864;2022-11-20T12:00:12;9.63;;;3.35;;
71196;SDS011;58918;51.652;4.864;2022-11-20T12:05:20;9.57;;;3.60;;
71196;SDS011;58918;51.652;4.864;2022-11-20T12:07:59;11.27;;;3.33;;
71196;SDS011;58918;51.652;4.864;2022-11-20T12:10:41;8.82;;;3.58;;
71196;SDS011;58918;51.652;4.864;2022-11-20T12:15:37;10.68;;;3.78;;
71196;SDS011;58918;51.652;4.864;2022-11-20T12:18:09;9.18;;;4.32;;
71196;SDS011;58918;51.652;4.864;2022-11-20T12:20:41;9.65;;;3.85;;
71196;SDS011;58918;51.652;4.864;2022-11-20T12:23:22;13.23;;;4.82;;
71196;SDS011;58918;51.652;4.864;2022-11-20T12:25:54;10.80;;;4.18;;
71196;SDS011;58918;51.652;4.864;2022-11-20T12:31:01;8.38;;;3.92;;
71196;SDS011;58918;51.652;4.864;2022-11-20T12:36:36;8.88;;;4.18;;
71196;SDS011;58918;51.652;4.864;2022-11-20T12:39:18;9.68;;;3.58;;
71196;SDS011;58918;51.652;4.864;2022-11-20T12:45:02;10.63;;;4.15;;
71196;SDS011;58918;51.652;4.864;2022-11-20T12:50:28;8.48;;;4.20;;
71196;SDS011;58918;51.652;4.864;2022-11-20T12:58:16;9.07;;;4.05;;
71196;SDS011;58918;51.652;4.864;2022-11-20T13:05:53;9.50;;;3.97;;
71196;SDS011;58918;51.652;4.864;2022-11-20T13:08:24;10.30;;;4.07;;
71196;SDS011;58918;51.652;4.864;2022-11-20T13:10:55;12.57;;;4.32;;
71196;SDS011;58918;51.652;4.864;2022-11-20T13:18:21;12.25;;;4.43;;
71196;SDS011;58918;51.652;4.864;2022-11-20T13:20:48;11.07;;;4.60;;
71196;SDS011;58918;51.652;4.864;2022-11-20T13:23:23;13.88;;;4.72;;
71196;SDS011;58918;51.652;4.864;2022-11-20T13:26:14;9.77;;;4.18;;
71196;SDS011;58918;51.652;4.864;2022-11-20T13:28:41;11.52;;;4.30;;
71196;SDS011;58918;51.652;4.864;2022-11-20T13:31:10;10.38;;;4.25;;
71196;SDS011;58918;51.652;4.864;2022-11-20T13:33:51;12.15;;;4.47;;
71196;SDS011;58918;51.652;4.864;2022-11-20T13:38:48;12.90;;;4.13;;
71196;SDS011;58918;51.652;4.864;2022-11-20T13:41:33;15.60;;;4.78;;
71196;SDS011;58918;51.652;4.864;2022-11-20T13:46:52;13.80;;;4.35;;
71196;SDS011;58918;51.652;4.864;2022-11-20T13:51:50;12.88;;;4.70;;
71196;SDS011;58918;51.652;4.864;2022-11-20T13:54:22;9.60;;;4.20;;
71196;SDS011;58918;51.652;4.864;2022-11-20T13:59:28;11.10;;;4.22;;
71196;SDS011;58918;51.652;4.864;2022-11-20T14:02:00;7.75;;;3.90;;
71196;SDS011;58918;51.652;4.864;2022-11-20T14:04:33;12.48;;;4.32;;
71196;SDS011;58918;51.652;4.864;2022-11-20T14:07:00;10.88;;;4.32;;
71196;SDS011;58918;51.652;4.864;2022-11-20T14:09:28;9.88;;;4.13;;
71196;SDS011;58918;51.652;4.864;2022-11-20T14:11:56;8.90;;;4.05;;
71196;SDS011;58918;51.652;4.864;2022-11-20T14:14:24;9.60;;;4.35;;
71196;SDS011;58918;51.652;4.864;2022-11-20T14:16:53;12.35;;;4.03;;
71196;SDS011;58918;51.652;4.864;2022-11-20T14:19:31;11.43;;;4.05;;
71196;SDS011;58918;51.652;4.864;2022-11-20T14:24:42;9.95;;;4.47;;
71196;SDS011;58918;51.652;4.864;2022-11-20T14:27:18;11.55;;;3.97;;
71196;SDS011;58918;51.652;4.864;2022-11-20T14:29:49;9.13;;;4.50;;
71196;SDS011;58918;51.652;4.864;2022-11-20T14:32:17;12.90;;;4.78;;
71196;SDS011;58918;51.652;4.864;2022-11-20T14:34:45;11.63;;;4.15;;
71196;SDS011;58918;51.652;4.864;2022-11-20T14:37:20;10.90;;;4.15;;
71196;SDS011;58918;51.652;4.864;2022-11-20T14:39:49;10.77;;;4.53;;
71196;SDS011;58918;51.652;4.864;2022-11-20T14:42:24;8.18;;;3.97;;
71196;SDS011;58918;51.652;4.864;2022-11-20T14:44:55;9.68;;;4.45;;
71196;SDS011;58918;51.652;4.864;2022-11-20T14:47:24;8.82;;;4.00;;
71196;SDS011;58918;51.652;4.864;2022-11-20T14:49:55;9.57;;;4.18;;
71196;SDS011;58918;51.652;4.864;2022-11-20T14:54:57;7.97;;;4.13;;
71196;SDS011;58918;51.652;4.864;2022-11-20T14:57:34;10.88;;;4.35;;
71196;SDS011;58918;51.652;4.864;2022-11-20T15:02:43;9.15;;;4.15;;
71196;SDS011;58918;51.652;4.864;2022-11-20T15:05:11;10.23;;;4.30;;
71196;SDS011;58918;51.652;4.864;2022-11-20T15:10:12;9.90;;;4.32;;
71196;SDS011;58918;51.652;4.864;2022-11-20T15:12:52;8.88;;;4.30;;
71196;SDS011;58918;51.652;4.864;2022-11-20T15:15:30;9.60;;;4.03;;
71196;SDS011;58918;51.652;4.864;2022-11-20T15:17:58;8.88;;;4.00;;
71196;SDS011;58918;51.652;4.864;2022-11-20T15:20:26;13.70;;;4.40;;
71196;SDS011;58918;51.652;4.864;2022-11-20T15:22:54;9.10;;;3.90;;
71196;SDS011;58918;51.652;4.864;2022-11-20T15:25:29;8.88;;;4.30;;
71196;SDS011;58918;51.652;4.864;2022-11-20T15:27:57;7.15;;;3.65;;
71196;SDS011;58918;51.652;4.864;2022-11-20T15:30:26;9.57;;;4.40;;
71196;SDS011;58918;51.652;4.864;2022-11-20T15:32:53;8.43;;;3.65;;
71196;SDS011;58918;51.652;4.864;2022-11-20T15:35:20;9.18;;;3.47;;
71196;SDS011;58918;51.652;4.864;2022-11-20T15:37:48;8.25;;;4.25;;
71196;SDS011;58918;51.652;4.864;2022-11-20T15:40:16;7.40;;;3.30;;
71196;SDS011;58918;51.652;4.864;2022-11-20T15:42:43;8.75;;;4.32;;
71196;SDS011;58918;51.652;4.864;2022-11-20T15:48:33;10.25;;;4.60;;
71196;SDS011;58918;51.652;4.864;2022-11-20T15:53:39;7.55;;;4.00;;
71196;SDS011;58918;51.652;4.864;2022-11-20T15:56:12;12.15;;;4.22;;
71196;SDS011;58918;51.652;4.864;2022-11-20T15:58:40;12.15;;;4.45;;
71196;SDS011;58918;51.652;4.864;2022-11-20T16:01:11;8.88;;;4.18;;
71196;SDS011;58918;51.652;4.864;2022-11-20T16:03:39;10.80;;;4.55;;
71196;SDS011;58918;51.652;4.864;2022-11-20T16:06:06;10.05;;;3.70;;
71196;SDS011;58918;51.652;4.864;2022-11-20T16:08:34;10.93;;;4.20;;
71196;SDS011;58918;51.652;4.864;2022-11-20T16:11:01;10.25;;;4.53;;
71196;SDS011;58918;51.652;4.864;2022-11-20T16:13:30;8.60;;;4.18;;
71196;SDS011;58918;51.652;4.864;2022-11-20T16:16:19;8.25;;;4.43;;
71196;SDS011;58918;51.652;4.864;2022-11-20T16:18:48;11.50;;;4.50;;
71196;SDS011;58918;51.652;4.864;2022-11-20T16:21:15;10.77;;;4.45;;
71196;SDS011;58918;51.652;4.864;2022-11-20T16:23:42;9.20;;;4.65;;
71196;SDS011;58918;51.652;4.864;2022-11-20T16:26:10;10.30;;;4.38;;
71196;SDS011;58918;51.652;4.864;2022-11-20T16:28:38;8.70;;;4.10;;
71196;SDS011;58918;51.652;4.864;2022-11-20T16:31:09;8.88;;;4.50;;
71196;SDS011;58918;51.652;4.864;2022-11-20T16:33:36;10.63;;;4.18;;
71196;SDS011;58918;51.652;4.864;2022-11-20T16:36:09;9.00;;;3.75;;
71196;SDS011;58918;51.652;4.864;2022-11-20T16:38:37;9.98;;;4.30;;
71196;SDS011;58918;51.652;4.864;2022-11-20T16:41:04;9.60;;;4.25;;
71196;SDS011;58918;51.652;4.864;2022-11-20T16:43:32;10.05;;;4.20;;
71196;SDS011;58918;51.652;4.864;2022-11-20T16:45:59;9.93;;;3.92;;
71196;SDS011;58918;51.652;4.864;2022-11-20T16:48:30;10.93;;;4.30;;
71196;SDS011;58918;51.652;4.864;2022-11-20T16:50:57;7.93;;;3.47;;
71196;SDS011;58918;51.652;4.864;2022-11-20T16:53:24;8.10;;;3.90;;
71196;SDS011;58918;51.652;4.864;2022-11-20T16:55:51;7.90;;;3.67;;
71196;SDS011;58918;51.652;4.864;2022-11-20T16:58:18;8.35;;;3.58;;
71196;SDS011;58918;51.652;4.864;2022-11-20T17:00:48;7.72;;;3.90;;